Nikep, Maryland
Current Conditions -  °F | °C
As of 12:14 PM on Thursday 30 Oct 2014 (Local Time) from KCBE Reporting Station
Overcast Overcast  
Wind Chill: 52°   Ceiling: 4100
Heat Index: 52°   Visibility: 10mi
Dew Point: 34°   Wind: 5mph
Humidity: 50%   Direction: 340°NNW
Pressure: 30.13"   Gusts: NA
Location:  39.5506°N, 78.9975°W
Report Text: KCBE 301614Z AUTO 34004KT 10SM OVC041 11/01 A3013 RMK AO1
Loading
Personal Weather Stations






























Interactive Weather Map
Tropical Storm Tracking
New forecast layout! Learn more

10-Day Weather Forecast

Advertisements
Track Severe Weather on mobile